createdAt,value
2022-11-20T00:01:40.768Z,9.38
2022-11-20T00:06:42.146Z,10.93
2022-11-20T00:11:43.528Z,9.88
2022-11-20T00:16:44.866Z,9.60
2022-11-20T00:21:46.245Z,9.63
2022-11-20T00:26:47.667Z,10.27
2022-11-20T00:31:49.011Z,10.95
2022-11-20T00:36:50.346Z,9.18
2022-11-20T00:41:51.697Z,10.25
2022-11-20T00:46:53.064Z,9.98
2022-11-20T00:51:54.498Z,9.77
2022-11-20T00:56:56.016Z,9.82
2022-11-20T01:01:57.337Z,10.57
2022-11-20T01:06:58.799Z,10.15
2022-11-20T01:12:01.128Z,10.05
2022-11-20T01:17:02.480Z,9.07
2022-11-20T01:22:03.828Z,9.77
2022-11-20T01:27:05.129Z,10.00
2022-11-20T01:32:06.522Z,9.40
2022-11-20T01:37:07.902Z,10.52
2022-11-20T01:42:27.990Z,10.98
2022-11-20T01:47:41.425Z,11.02
2022-11-20T01:52:53.528Z,10.85
2022-11-20T01:57:55.407Z,10.63
2022-11-20T02:03:01.530Z,11.13
2022-11-20T02:08:05.340Z,10.50
2022-11-20T02:13:25.772Z,10.65
2022-11-20T02:18:27.621Z,10.63
2022-11-20T02:23:37.459Z,11.20
2022-11-20T02:28:38.956Z,11.00
2022-11-20T02:33:40.299Z,10.80
2022-11-20T02:38:42.638Z,12.00
2022-11-20T02:43:44.011Z,12.30
2022-11-20T02:48:45.508Z,11.07
2022-11-20T02:53:53.094Z,11.27
2022-11-20T03:03:58.699Z,9.95
2022-11-20T03:09:00.229Z,10.98
2022-11-20T03:14:06.046Z,10.02
2022-11-20T03:19:07.900Z,9.07
2022-11-20T03:24:09.831Z,10.75
2022-11-20T03:29:11.625Z,10.85
2022-11-20T03:34:13.105Z,9.88
2022-11-20T03:39:14.453Z,9.27
2022-11-20T03:44:15.884Z,10.30
2022-11-20T03:49:17.216Z,10.40
2022-11-20T03:54:18.576Z,9.52
2022-11-20T03:59:20.173Z,11.68
2022-11-20T04:04:21.811Z,10.95
2022-11-20T04:09:23.397Z,11.43
2022-11-20T04:14:25.062Z,10.75
2022-11-20T04:19:26.450Z,10.95
2022-11-20T04:24:27.822Z,9.90
2022-11-20T04:29:29.241Z,9.85
2022-11-20T04:34:30.874Z,10.20
2022-11-20T04:39:32.288Z,10.63
2022-11-20T04:44:33.650Z,9.95
2022-11-20T04:49:35.063Z,10.13
2022-11-20T04:54:36.439Z,10.00
2022-11-20T04:59:37.777Z,11.07
2022-11-20T05:04:39.290Z,10.77
2022-11-20T05:09:40.641Z,10.40
2022-11-20T05:14:41.976Z,10.95
2022-11-20T05:19:43.529Z,9.88
2022-11-20T05:30:02.573Z,10.30
2022-11-20T05:35:04.143Z,11.05
2022-11-20T05:40:06.204Z,11.65
2022-11-20T05:45:08.239Z,10.95
2022-11-20T05:50:09.743Z,10.60
2022-11-20T05:55:11.191Z,10.50
2022-11-20T06:00:13.502Z,10.10
2022-11-20T06:05:15.043Z,9.80
2022-11-20T06:10:16.544Z,11.45
2022-11-20T06:15:17.882Z,11.48
2022-11-20T06:20:21.812Z,11.18
2022-11-20T06:25:23.215Z,11.15
2022-11-20T06:30:24.584Z,11.38
2022-11-20T06:35:25.979Z,12.77
2022-11-20T06:40:27.344Z,12.48
2022-11-20T06:45:28.690Z,13.05
2022-11-20T06:50:30.167Z,12.27
2022-11-20T06:55:32.678Z,13.07
2022-11-20T07:00:34.122Z,12.82
2022-11-20T07:05:36.536Z,13.88
2022-11-20T07:10:37.997Z,13.20
2022-11-20T07:15:39.421Z,13.30
2022-11-20T07:20:40.809Z,13.70
2022-11-20T07:25:42.292Z,14.25
2022-11-20T07:30:43.634Z,15.50
2022-11-20T07:35:45.002Z,15.85
2022-11-20T07:40:46.354Z,15.82
2022-11-20T07:45:47.727Z,14.43
2022-11-20T07:50:49.103Z,15.90
2022-11-20T07:55:53.257Z,16.88
2022-11-20T08:00:54.719Z,18.90
2022-11-20T08:06:00.291Z,19.63
2022-11-20T08:11:20.497Z,17.02
2022-11-20T08:16:22.661Z,17.90
2022-11-20T08:21:24.806Z,17.85
2022-11-20T08:26:27.127Z,17.30
2022-11-20T08:31:28.914Z,16.58
2022-11-20T08:36:34.197Z,17.90
2022-11-20T08:41:37.613Z,18.27
2022-11-20T08:46:41.922Z,17.80
2022-11-20T08:51:43.360Z,17.08
2022-11-20T08:56:44.772Z,16.48
2022-11-20T09:01:46.137Z,17.15
2022-11-20T09:06:51.722Z,18.05
2022-11-20T09:11:53.211Z,19.00
2022-11-20T09:16:54.554Z,17.55
2022-11-20T09:21:59.706Z,15.98
2022-11-20T09:27:05.808Z,16.15
2022-11-20T09:32:07.271Z,17.77
2022-11-20T09:37:08.677Z,16.83
2022-11-20T09:42:38.340Z,16.08
2022-11-20T09:48:04.517Z,15.45
2022-11-20T09:53:20.812Z,14.70
2022-11-20T09:58:46.570Z,15.02
2022-11-20T10:03:56.652Z,13.63
2022-11-20T10:09:07.138Z,15.20
2022-11-20T10:14:24.838Z,14.30
2022-11-20T10:19:38.243Z,14.88
2022-11-20T10:24:52.698Z,14.10
2022-11-20T10:30:14.286Z,16.08
2022-11-20T10:35:34.421Z,14.85
2022-11-20T10:40:45.150Z,14.77
2022-11-20T10:46:06.026Z,16.27
2022-11-20T10:51:30.088Z,14.93
2022-11-20T10:56:49.884Z,15.75
2022-11-20T11:01:51.682Z,16.23
2022-11-20T11:06:59.617Z,14.82
2022-11-20T11:12:05.858Z,15.98
2022-11-20T11:17:21.568Z,15.13
2022-11-20T11:22:23.019Z,14.52
2022-11-20T11:27:24.453Z,14.23
2022-11-20T11:32:27.430Z,15.80
2022-11-20T11:37:35.694Z,16.38
2022-11-20T11:42:44.212Z,15.65
2022-11-20T11:47:52.470Z,16.13
2022-11-20T11:53:02.806Z,14.45
2022-11-20T11:58:17.327Z,14.75
2022-11-20T12:03:25.723Z,15.18
2022-11-20T12:08:49.262Z,16.42
2022-11-20T12:13:59.300Z,15.50
2022-11-20T12:19:00.747Z,16.05
2022-11-20T12:24:21.421Z,14.32
2022-11-20T12:29:22.917Z,17.50
2022-11-20T12:34:56.862Z,16.25
2022-11-20T12:40:16.922Z,16.70
2022-11-20T12:45:55.100Z,16.50
2022-11-20T12:51:22.040Z,15.82
2022-11-20T12:56:26.249Z,16.30
2022-11-20T13:01:41.783Z,17.80
2022-11-20T13:06:44.979Z,18.35
2022-11-20T13:11:52.770Z,17.27
2022-11-20T13:17:14.217Z,17.10
2022-11-20T13:22:44.050Z,17.05
2022-11-20T13:27:49.938Z,17.60
2022-11-20T13:32:58.396Z,18.50
2022-11-20T13:38:01.877Z,18.60
2022-11-20T13:43:23.832Z,17.30
2022-11-20T13:48:30.156Z,18.50
2022-11-20T13:53:54.475Z,17.88
2022-11-20T13:59:05.685Z,17.30
2022-11-20T14:04:10.294Z,18.58
2022-11-20T14:09:14.052Z,18.00
2022-11-20T14:14:20.122Z,18.10
2022-11-20T14:19:21.482Z,18.98
2022-11-20T14:24:25.425Z,19.15
2022-11-20T14:29:35.370Z,19.10
2022-11-20T14:34:41.573Z,20.33
2022-11-20T14:39:48.693Z,17.77
2022-11-20T14:44:51.790Z,19.38
2022-11-20T14:49:55.777Z,20.42
2022-11-20T14:55:02.061Z,19.25
2022-11-20T15:00:15.421Z,21.50
2022-11-20T15:05:19.057Z,20.65
2022-11-20T15:10:26.043Z,22.25
2022-11-20T15:15:44.993Z,22.42
2022-11-20T15:20:47.021Z,21.85
2022-11-20T15:25:49.474Z,21.92
2022-11-20T15:30:51.234Z,19.92
2022-11-20T15:35:52.605Z,21.70
2022-11-20T15:40:53.974Z,21.08
2022-11-20T15:46:00.236Z,23.60
2022-11-20T15:51:22.267Z,22.95
2022-11-20T15:56:24.279Z,23.15
2022-11-20T16:01:25.681Z,23.27
2022-11-20T16:06:27.076Z,22.20
2022-11-20T16:11:28.417Z,22.08
2022-11-20T16:16:33.380Z,23.85
2022-11-20T16:21:35.711Z,22.85
2022-11-20T16:26:37.820Z,22.73
2022-11-20T16:31:40.159Z,21.23
2022-11-20T16:36:43.055Z,20.88
2022-11-20T16:41:44.415Z,19.95
2022-11-20T16:46:45.764Z,22.85
2022-11-20T16:51:47.120Z,21.00
2022-11-20T16:56:48.638Z,21.35
2022-11-20T17:01:50.595Z,20.88
2022-11-20T17:06:52.035Z,22.30
2022-11-20T17:11:53.460Z,15.80
2022-11-20T17:16:54.831Z,15.68
2022-11-20T17:21:56.183Z,19.23
2022-11-20T17:26:57.607Z,18.55
2022-11-20T17:31:59.065Z,22.05
2022-11-20T17:37:00.447Z,22.23
2022-11-20T17:42:20.856Z,18.45
2022-11-20T17:47:22.452Z,19.73
2022-11-20T17:52:24.028Z,19.27
2022-11-20T17:57:43.944Z,23.40
2022-11-20T18:02:45.620Z,21.92
2022-11-20T18:07:47.102Z,20.00
2022-11-20T18:12:48.624Z,19.75
2022-11-20T18:17:50.137Z,17.40
2022-11-20T18:22:51.485Z,19.02
2022-11-20T18:27:52.899Z,20.60
2022-11-20T18:32:55.400Z,25.55
2022-11-20T18:37:56.890Z,25.30
2022-11-20T18:43:16.677Z,25.13
2022-11-20T18:48:18.058Z,21.98
2022-11-20T18:53:19.457Z,21.42
2022-11-20T18:58:20.802Z,17.50
2022-11-20T19:08:35.731Z,14.07
2022-11-20T19:13:37.834Z,12.90
2022-11-20T19:18:39.837Z,10.50
2022-11-20T19:23:41.512Z,9.82
2022-11-20T19:28:43.285Z,11.52
2022-11-20T19:33:45.367Z,10.35
2022-11-20T19:38:50.231Z,10.07
2022-11-20T19:43:51.813Z,8.57
2022-11-20T19:48:55.181Z,8.93
2022-11-20T19:53:57.752Z,6.35
2022-11-20T19:58:59.420Z,6.50
2022-11-20T20:04:02.621Z,4.15
2022-11-20T20:09:09.933Z,3.47
2022-11-20T20:14:14.790Z,2.70
2022-11-20T20:19:17.541Z,2.17
2022-11-20T20:24:24.983Z,2.10
2022-11-20T20:29:26.817Z,2.30
2022-11-20T20:34:31.340Z,1.60
2022-11-20T20:39:32.832Z,1.85
2022-11-20T20:44:52.832Z,1.00
2022-11-20T20:49:57.383Z,0.55
2022-11-20T20:54:59.050Z,0.70
2022-11-20T21:00:00.875Z,0.63
2022-11-20T21:05:03.856Z,0.82
2022-11-20T21:10:06.486Z,0.60
2022-11-20T21:15:08.434Z,0.60
2022-11-20T21:20:31.530Z,0.70
2022-11-20T21:25:37.212Z,0.70
2022-11-20T21:30:38.689Z,0.40
2022-11-20T21:35:41.350Z,0.52
2022-11-20T21:40:42.882Z,1.33
2022-11-20T21:45:44.301Z,0.63
2022-11-20T21:50:45.659Z,0.50
2022-11-20T21:55:56.853Z,0.38
2022-11-20T22:00:58.303Z,0.43
2022-11-20T22:05:59.881Z,0.60
2022-11-20T22:11:04.081Z,0.47
2022-11-20T22:16:05.791Z,0.47
2022-11-20T22:21:07.405Z,0.40
2022-11-20T22:26:11.181Z,0.40
2022-11-20T22:31:12.523Z,0.70
2022-11-20T22:36:16.813Z,0.50
2022-11-20T22:41:20.657Z,0.50
2022-11-20T22:46:22.842Z,1.20
2022-11-20T22:51:32.775Z,0.60
2022-11-20T22:56:34.915Z,0.80
2022-11-20T23:01:37.172Z,0.70
2022-11-20T23:06:39.102Z,0.70
2022-11-20T23:11:40.522Z,0.50
2022-11-20T23:16:42.212Z,1.02
2022-11-20T23:21:43.770Z,0.50
2022-11-20T23:26:47.168Z,0.60
2022-11-20T23:31:48.645Z,0.65
2022-11-20T23:36:50.094Z,0.60
2022-11-20T23:41:53.943Z,0.50
2022-11-20T23:46:55.508Z,0.60
2022-11-20T23:51:57.514Z,0.95
2022-11-20T23:56:59.041Z,1.08
